sensor_id;sensor_type;location;lat;lon;timestamp;pressure;altitude;pressure_sealevel;temperature;humidity
9969;BME280;5025;48.890;9.278;2023-06-04T00:00:33;98729.03;;;18.12;47.75
9969;BME280;5025;48.890;9.278;2023-06-04T00:02:58;98731.53;;;18.08;48.07
9969;BME280;5025;48.890;9.278;2023-06-04T00:05:24;98729.63;;;18.03;48.35
9969;BME280;5025;48.890;9.278;2023-06-04T00:07:51;98722.81;;;18.01;48.67
9969;BME280;5025;48.890;9.278;2023-06-04T00:10:16;98731.84;;;17.96;48.65
9969;BME280;5025;48.890;9.278;2023-06-04T00:12:42;98729.66;;;17.93;48.44
9969;BME280;5025;48.890;9.278;2023-06-04T00:15:07;98726.94;;;17.93;48.55
9969;BME280;5025;48.890;9.278;2023-06-04T00:17:32;98728.00;;;17.92;48.45
9969;BME280;5025;48.890;9.278;2023-06-04T00:19:58;98728.84;;;17.92;48.33
9969;BME280;5025;48.890;9.278;2023-06-04T00:22:24;98732.13;;;17.89;48.23
9969;BME280;5025;48.890;9.278;2023-06-04T00:24:49;98733.47;;;17.87;48.14
9969;BME280;5025;48.890;9.278;2023-06-04T00:27:14;98735.13;;;17.83;48.06
9969;BME280;5025;48.890;9.278;2023-06-04T00:29:39;98732.09;;;17.84;47.74
9969;BME280;5025;48.890;9.278;2023-06-04T00:32:05;98735.94;;;17.83;47.69
9969;BME280;5025;48.890;9.278;2023-06-04T00:34:30;98733.50;;;17.82;47.48
9969;BME280;5025;48.890;9.278;2023-06-04T00:36:56;98735.66;;;17.80;47.36
9969;BME280;5025;48.890;9.278;2023-06-04T00:39:21;98730.50;;;17.73;47.15
9969;BME280;5025;48.890;9.278;2023-06-04T00:41:46;98736.53;;;17.70;47.12
9969;BME280;5025;48.890;9.278;2023-06-04T00:44:11;98734.63;;;17.65;46.91
9969;BME280;5025;48.890;9.278;2023-06-04T00:46:37;98739.00;;;17.61;46.86
9969;BME280;5025;48.890;9.278;2023-06-04T00:49:05;98742.53;;;17.56;46.90
9969;BME280;5025;48.890;9.278;2023-06-04T00:51:31;98735.72;;;17.49;46.79
9969;BME280;5025;48.890;9.278;2023-06-04T00:53:58;98743.38;;;17.47;47.09
9969;BME280;5025;48.890;9.278;2023-06-04T00:56:23;98748.56;;;17.48;47.14
9969;BME280;5025;48.890;9.278;2023-06-04T00:58:49;98746.13;;;17.47;47.31
9969;BME280;5025;48.890;9.278;2023-06-04T01:01:38;98749.41;;;17.44;47.38
9969;BME280;5025;48.890;9.278;2023-06-04T01:04:09;98749.94;;;17.41;47.22
9969;BME280;5025;48.890;9.278;2023-06-04T01:06:44;98754.88;;;17.38;47.04
9969;BME280;5025;48.890;9.278;2023-06-04T01:09:10;98755.41;;;17.35;47.16
9969;BME280;5025;48.890;9.278;2023-06-04T01:11:38;98757.59;;;17.33;46.89
9969;BME280;5025;48.890;9.278;2023-06-04T01:14:05;98753.78;;;17.29;46.52
9969;BME280;5025;48.890;9.278;2023-06-04T01:16:57;98755.94;;;17.27;46.88
9969;BME280;5025;48.890;9.278;2023-06-04T01:20:01;98757.06;;;17.26;46.83
9969;BME280;5025;48.890;9.278;2023-06-04T01:22:38;98762.50;;;17.21;46.65
9969;BME280;5025;48.890;9.278;2023-06-04T01:25:10;98762.50;;;17.16;46.71
9969;BME280;5025;48.890;9.278;2023-06-04T01:27:37;98757.59;;;17.13;46.51
9969;BME280;5025;48.890;9.278;2023-06-04T01:30:06;98753.53;;;17.10;46.51
9969;BME280;5025;48.890;9.278;2023-06-04T01:32:33;98755.97;;;17.07;46.47
9969;BME280;5025;48.890;9.278;2023-06-04T01:34:59;98757.03;;;17.00;46.34
9969;BME280;5025;48.890;9.278;2023-06-04T01:37:24;98753.78;;;16.98;46.41
9969;BME280;5025;48.890;9.278;2023-06-04T01:39:51;98754.31;;;16.95;46.38
9969;BME280;5025;48.890;9.278;2023-06-04T01:42:16;98754.59;;;16.94;46.43
9969;BME280;5025;48.890;9.278;2023-06-04T01:44:41;98754.31;;;16.90;46.39
9969;BME280;5025;48.890;9.278;2023-06-04T01:47:07;98752.13;;;16.87;46.27
9969;BME280;5025;48.890;9.278;2023-06-04T01:49:32;98756.75;;;16.87;46.28
9969;BME280;5025;48.890;9.278;2023-06-04T01:51:57;98758.91;;;16.84;46.40
9969;BME280;5025;48.890;9.278;2023-06-04T01:54:22;98751.00;;;16.83;46.10
9969;BME280;5025;48.890;9.278;2023-06-04T01:56:48;98752.34;;;16.80;46.14
9969;BME280;5025;48.890;9.278;2023-06-04T01:59:13;98753.72;;;16.78;46.25
9969;BME280;5025;48.890;9.278;2023-06-04T02:01:41;98758.63;;;16.76;45.98
9969;BME280;5025;48.890;9.278;2023-06-04T02:04:06;98760.25;;;16.72;46.02
9969;BME280;5025;48.890;9.278;2023-06-04T02:06:31;98760.81;;;16.69;46.11
9969;BME280;5025;48.890;9.278;2023-06-04T02:08:57;98754.78;;;16.61;46.11
9969;BME280;5025;48.890;9.278;2023-06-04T02:11:22;98758.03;;;16.58;45.88
9969;BME280;5025;48.890;9.278;2023-06-04T02:13:47;98755.84;;;16.55;45.88
9969;BME280;5025;48.890;9.278;2023-06-04T02:16:13;98755.03;;;16.55;45.83
9969;BME280;5025;48.890;9.278;2023-06-04T02:18:38;98761.84;;;16.52;45.78
9969;BME280;5025;48.890;9.278;2023-06-04T02:21:03;98760.19;;;16.51;45.58
9969;BME280;5025;48.890;9.278;2023-06-04T02:23:28;98750.09;;;16.46;45.55
9969;BME280;5025;48.890;9.278;2023-06-04T02:25:54;98757.47;;;16.46;45.45
9969;BME280;5025;48.890;9.278;2023-06-04T02:28:20;98757.72;;;16.44;45.40
9969;BME280;5025;48.890;9.278;2023-06-04T02:30:45;98757.72;;;16.44;45.36
9969;BME280;5025;48.890;9.278;2023-06-04T02:33:11;98757.47;;;16.41;45.62
9969;BME280;5025;48.890;9.278;2023-06-04T02:35:37;98756.63;;;16.40;45.53
9969;BME280;5025;48.890;9.278;2023-06-04T02:38:02;98757.72;;;16.39;45.55
9969;BME280;5025;48.890;9.278;2023-06-04T02:40:28;98763.72;;;16.36;45.52
9969;BME280;5025;48.890;9.278;2023-06-04T02:42:54;98754.16;;;16.34;45.77
9969;BME280;5025;48.890;9.278;2023-06-04T02:45:21;98763.66;;;16.31;45.78
9969;BME280;5025;48.890;9.278;2023-06-04T02:47:46;98760.13;;;16.25;45.79
9969;BME280;5025;48.890;9.278;2023-06-04T02:50:13;98760.13;;;16.25;45.80
9969;BME280;5025;48.890;9.278;2023-06-04T02:52:38;98773.44;;;16.22;46.17
9969;BME280;5025;48.890;9.278;2023-06-04T02:55:06;98771.50;;;16.17;45.82
9969;BME280;5025;48.890;9.278;2023-06-04T02:57:31;98769.03;;;16.10;46.01
9969;BME280;5025;48.890;9.278;2023-06-04T02:59:57;98771.22;;;16.08;46.24
9969;BME280;5025;48.890;9.278;2023-06-04T03:02:22;98774.22;;;16.07;46.45
9969;BME280;5025;48.890;9.278;2023-06-04T03:04:47;98775.28;;;16.06;46.44
9969;BME280;5025;48.890;9.278;2023-06-04T03:07:16;98775.81;;;16.03;46.53
9969;BME280;5025;48.890;9.278;2023-06-04T03:09:45;98773.06;;;15.98;46.78
9969;BME280;5025;48.890;9.278;2023-06-04T03:12:10;98777.13;;;15.95;46.82
9969;BME280;5025;48.890;9.278;2023-06-04T03:14:36;98777.41;;;15.93;46.84
9969;BME280;5025;48.890;9.278;2023-06-04T03:17:02;98773.28;;;15.91;46.84
9969;BME280;5025;48.890;9.278;2023-06-04T03:19:40;98783.91;;;15.92;46.88
9969;BME280;5025;48.890;9.278;2023-06-04T03:22:06;98780.09;;;15.88;46.87
9969;BME280;5025;48.890;9.278;2023-06-04T03:24:36;98784.16;;;15.86;47.00
9969;BME280;5025;48.890;9.278;2023-06-04T03:27:02;98785.75;;;15.82;47.05
9969;BME280;5025;48.890;9.278;2023-06-04T03:29:28;98783.88;;;15.77;47.04
9969;BME280;5025;48.890;9.278;2023-06-04T03:31:54;98785.72;;;15.76;46.97
9969;BME280;5025;48.890;9.278;2023-06-04T03:34:19;98783.50;;;15.73;46.95
9969;BME280;5025;48.890;9.278;2023-06-04T03:36:45;98793.59;;;15.73;46.76
9969;BME280;5025;48.890;9.278;2023-06-04T03:39:11;98789.47;;;15.70;46.78
9969;BME280;5025;48.890;9.278;2023-06-04T03:41:36;98791.41;;;15.70;46.76
9969;BME280;5025;48.890;9.278;2023-06-04T03:44:01;98800.63;;;15.69;46.77
9969;BME280;5025;48.890;9.278;2023-06-04T03:46:26;98800.09;;;15.67;46.85
9969;BME280;5025;48.890;9.278;2023-06-04T03:48:54;98796.81;;;15.65;46.74
9969;BME280;5025;48.890;9.278;2023-06-04T03:51:19;98795.97;;;15.64;46.85
9969;BME280;5025;48.890;9.278;2023-06-04T03:53:45;98806.06;;;15.64;46.85
9969;BME280;5025;48.890;9.278;2023-06-04T03:56:10;98807.38;;;15.61;46.98
9969;BME280;5025;48.890;9.278;2023-06-04T03:58:35;98804.94;;;15.59;46.99
9969;BME280;5025;48.890;9.278;2023-06-04T04:01:01;98802.19;;;15.59;47.06
9969;BME280;5025;48.890;9.278;2023-06-04T04:03:29;98803.31;;;15.58;47.34
9969;BME280;5025;48.890;9.278;2023-06-04T04:05:56;98803.31;;;15.58;47.28
9969;BME280;5025;48.890;9.278;2023-06-04T04:08:22;98804.13;;;15.59;47.50
9969;BME280;5025;48.890;9.278;2023-06-04T04:10:48;98808.75;;;15.58;47.43
9969;BME280;5025;48.890;9.278;2023-06-04T04:13:13;98806.03;;;15.58;47.55
9969;BME280;5025;48.890;9.278;2023-06-04T04:15:38;98808.75;;;15.58;47.45
9969;BME280;5025;48.890;9.278;2023-06-04T04:18:04;98810.09;;;15.56;47.72
9969;BME280;5025;48.890;9.278;2023-06-04T04:20:29;98814.47;;;15.57;47.78
9969;BME280;5025;48.890;9.278;2023-06-04T04:22:54;98810.38;;;15.59;47.83
9969;BME280;5025;48.890;9.278;2023-06-04T04:25:20;98816.66;;;15.60;47.90
9969;BME280;5025;48.890;9.278;2023-06-04T04:27:45;98823.72;;;15.61;47.95
9969;BME280;5025;48.890;9.278;2023-06-04T04:30:11;98826.69;;;15.59;48.06
9969;BME280;5025;48.890;9.278;2023-06-04T04:32:37;98824.50;;;15.56;48.38
9969;BME280;5025;48.890;9.278;2023-06-04T04:35:04;98823.94;;;15.54;48.48
9969;BME280;5025;48.890;9.278;2023-06-04T04:37:29;98830.47;;;15.53;48.44
9969;BME280;5025;48.890;9.278;2023-06-04T04:39:55;98828.25;;;15.50;48.60
9969;BME280;5025;48.890;9.278;2023-06-04T04:42:20;98833.72;;;15.50;48.73
9969;BME280;5025;48.890;9.278;2023-06-04T04:44:46;98834.22;;;15.47;48.83
9969;BME280;5025;48.890;9.278;2023-06-04T04:47:16;98833.72;;;15.50;49.01
9969;BME280;5025;48.890;9.278;2023-06-04T04:49:42;98827.19;;;15.51;48.97
9969;BME280;5025;48.890;9.278;2023-06-04T04:52:07;98834.84;;;15.54;49.20
9969;BME280;5025;48.890;9.278;2023-06-04T04:54:32;98829.41;;;15.54;49.21
9969;BME280;5025;48.890;9.278;2023-06-04T04:56:58;98827.47;;;15.55;49.42
9969;BME280;5025;48.890;9.278;2023-06-04T04:59:23;98835.38;;;15.56;49.38
9969;BME280;5025;48.890;9.278;2023-06-04T05:01:48;98831.06;;;15.55;49.42
9969;BME280;5025;48.890;9.278;2023-06-04T05:04:13;98834.03;;;15.54;49.64
9969;BME280;5025;48.890;9.278;2023-06-04T05:06:39;98834.28;;;15.52;49.57
9969;BME280;5025;48.890;9.278;2023-06-04T05:09:04;98839.72;;;15.52;49.72
9969;BME280;5025;48.890;9.278;2023-06-04T05:11:29;98844.91;;;15.54;49.71
9969;BME280;5025;48.890;9.278;2023-06-04T05:13:55;98835.13;;;15.58;49.79
9969;BME280;5025;48.890;9.278;2023-06-04T05:16:20;98843.34;;;15.63;49.53
9969;BME280;5025;48.890;9.278;2023-06-04T05:18:47;98838.47;;;15.65;49.67
9969;BME280;5025;48.890;9.278;2023-06-04T05:21:13;98850.22;;;15.71;49.16
9969;BME280;5025;48.890;9.278;2023-06-04T05:23:38;98845.06;;;15.74;49.08
9969;BME280;5025;48.890;9.278;2023-06-04T05:26:04;98854.41;;;15.79;49.31
9969;BME280;5025;48.890;9.278;2023-06-04T05:28:30;98857.41;;;15.82;49.23
9969;BME280;5025;48.890;9.278;2023-06-04T05:30:58;98856.88;;;15.85;49.27
9969;BME280;5025;48.890;9.278;2023-06-04T05:33:26;98858.81;;;15.90;49.16
9969;BME280;5025;48.890;9.278;2023-06-04T05:35:52;98860.50;;;15.96;49.28
9969;BME280;5025;48.890;9.278;2023-06-04T05:38:19;98857.78;;;16.01;48.89
9969;BME280;5025;48.890;9.278;2023-06-04T05:40:44;98867.91;;;16.06;48.88
9969;BME280;5025;48.890;9.278;2023-06-04T05:43:10;98866.84;;;16.12;48.47
9969;BME280;5025;48.890;9.278;2023-06-04T05:45:36;98870.44;;;16.18;48.30
9969;BME280;5025;48.890;9.278;2023-06-04T05:48:01;98872.31;;;16.17;48.00
9969;BME280;5025;48.890;9.278;2023-06-04T05:50:27;98870.47;;;16.23;47.96
9969;BME280;5025;48.890;9.278;2023-06-04T05:52:53;98872.66;;;16.26;48.03
9969;BME280;5025;48.890;9.278;2023-06-04T05:55:19;98865.59;;;16.30;47.84
9969;BME280;5025;48.890;9.278;2023-06-04T05:57:44;98865.88;;;16.34;47.55
9969;BME280;5025;48.890;9.278;2023-06-04T06:00:10;98870.81;;;16.37;47.28
9969;BME280;5025;48.890;9.278;2023-06-04T06:02:36;98875.19;;;16.38;46.72
9969;BME280;5025;48.890;9.278;2023-06-04T06:05:02;98876.53;;;16.40;46.24
9969;BME280;5025;48.890;9.278;2023-06-04T06:07:28;98879.84;;;16.42;45.60
9969;BME280;5025;48.890;9.278;2023-06-04T06:09:53;98868.69;;;16.44;45.42
9969;BME280;5025;48.890;9.278;2023-06-04T06:12:18;98878.22;;;16.46;45.11
9969;BME280;5025;48.890;9.278;2023-06-04T06:14:43;98880.13;;;16.51;44.82
9969;BME280;5025;48.890;9.278;2023-06-04T06:17:09;98880.44;;;16.55;44.23
9969;BME280;5025;48.890;9.278;2023-06-04T06:19:36;98871.16;;;16.56;44.08
9969;BME280;5025;48.890;9.278;2023-06-04T06:22:01;98876.41;;;16.62;43.86
9969;BME280;5025;48.890;9.278;2023-06-04T06:24:26;98873.66;;;16.62;43.73
9969;BME280;5025;48.890;9.278;2023-06-04T06:26:52;98884.59;;;16.67;43.83
9969;BME280;5025;48.890;9.278;2023-06-04T06:29:17;98882.72;;;16.73;44.09
9969;BME280;5025;48.890;9.278;2023-06-04T06:31:42;98886.25;;;16.79;43.97
9969;BME280;5025;48.890;9.278;2023-06-04T06:34:07;98892.00;;;16.82;44.11
9969;BME280;5025;48.890;9.278;2023-06-04T06:36:33;98892.31;;;16.86;43.96
9969;BME280;5025;48.890;9.278;2023-06-04T06:38:59;98898.34;;;16.93;44.07
9969;BME280;5025;48.890;9.278;2023-06-04T06:41:24;98892.38;;;16.96;44.35
9969;BME280;5025;48.890;9.278;2023-06-04T06:43:51;98899.75;;;17.01;44.41
9969;BME280;5025;48.890;9.278;2023-06-04T06:46:16;98900.56;;;17.01;44.77
9969;BME280;5025;48.890;9.278;2023-06-04T06:48:41;98900.84;;;17.05;44.89
9969;BME280;5025;48.890;9.278;2023-06-04T06:51:10;98895.69;;;17.09;44.99
9969;BME280;5025;48.890;9.278;2023-06-04T06:53:35;98898.69;;;17.12;44.88
9969;BME280;5025;48.890;9.278;2023-06-04T06:56:00;98907.13;;;17.16;44.68
9969;BME280;5025;48.890;9.278;2023-06-04T06:58:25;98897.34;;;17.20;44.37
9969;BME280;5025;48.890;9.278;2023-06-04T07:00:51;98899.53;;;17.23;44.29
9969;BME280;5025;48.890;9.278;2023-06-04T07:03:16;98896.78;;;17.33;44.07
9969;BME280;5025;48.890;9.278;2023-06-04T07:05:41;98897.63;;;17.34;44.04
9969;BME280;5025;48.890;9.278;2023-06-04T07:08:07;98892.44;;;17.37;44.00
9969;BME280;5025;48.890;9.278;2023-06-04T07:10:32;98897.91;;;17.43;43.93
9969;BME280;5025;48.890;9.278;2023-06-04T07:12:57;98894.63;;;17.46;43.98
9969;BME280;5025;48.890;9.278;2023-06-04T07:15:22;98894.66;;;17.51;44.02
9969;BME280;5025;48.890;9.278;2023-06-04T07:17:48;98899.03;;;17.57;44.07
9969;BME280;5025;48.890;9.278;2023-06-04T07:20:13;98899.84;;;17.63;44.06
9969;BME280;5025;48.890;9.278;2023-06-04T07:22:38;98899.59;;;17.69;44.05
9969;BME280;5025;48.890;9.278;2023-06-04T07:25:04;98903.38;;;17.73;44.17
9969;BME280;5025;48.890;9.278;2023-06-04T07:27:30;98896.84;;;17.80;44.01
9969;BME280;5025;48.890;9.278;2023-06-04T07:29:55;98906.66;;;17.86;44.03
9969;BME280;5025;48.890;9.278;2023-06-04T07:32:21;98891.41;;;17.90;44.06
9969;BME280;5025;48.890;9.278;2023-06-04T07:34:46;98898.75;;;18.00;44.16
9969;BME280;5025;48.890;9.278;2023-06-04T07:37:11;98897.41;;;18.02;43.96
9969;BME280;5025;48.890;9.278;2023-06-04T07:39:38;98902.84;;;18.07;43.86
9969;BME280;5025;48.890;9.278;2023-06-04T07:42:04;98899.84;;;18.14;43.72
9969;BME280;5025;48.890;9.278;2023-06-04T07:44:32;98894.38;;;18.19;43.83
9969;BME280;5025;48.890;9.278;2023-06-04T07:46:57;98894.06;;;18.26;43.57
9969;BME280;5025;48.890;9.278;2023-06-04T07:49:22;98900.09;;;18.33;43.40
9969;BME280;5025;48.890;9.278;2023-06-04T07:51:48;98894.59;;;18.38;43.53
9969;BME280;5025;48.890;9.278;2023-06-04T07:54:13;98890.75;;;18.44;43.38
9969;BME280;5025;48.890;9.278;2023-06-04T07:56:39;98883.09;;;18.52;43.57
9969;BME280;5025;48.890;9.278;2023-06-04T07:59:04;98889.91;;;18.59;43.25
9969;BME280;5025;48.890;9.278;2023-06-04T08:01:29;98886.84;;;18.66;43.22
9969;BME280;5025;48.890;9.278;2023-06-04T08:03:55;98881.63;;;18.75;43.41
9969;BME280;5025;48.890;9.278;2023-06-04T08:06:21;98877.50;;;18.77;43.03
9969;BME280;5025;48.890;9.278;2023-06-04T08:08:46;98880.50;;;18.81;43.01
9969;BME280;5025;48.890;9.278;2023-06-04T08:11:16;98875.84;;;18.87;42.88
9969;BME280;5025;48.890;9.278;2023-06-04T08:13:42;98882.13;;;18.92;42.97
9969;BME280;5025;48.890;9.278;2023-06-04T08:16:09;98885.38;;;18.99;43.04
9969;BME280;5025;48.890;9.278;2023-06-04T08:18:38;98877.13;;;19.05;43.05
9969;BME280;5025;48.890;9.278;2023-06-04T08:21:04;98875.19;;;19.10;43.04
9969;BME280;5025;48.890;9.278;2023-06-04T08:23:31;98871.31;;;19.16;43.09
9969;BME280;5025;48.890;9.278;2023-06-04T08:25:56;98878.63;;;19.26;42.93
9969;BME280;5025;48.890;9.278;2023-06-04T08:28:21;98868.78;;;19.25;42.87
9969;BME280;5025;48.890;9.278;2023-06-04T08:30:46;98876.16;;;19.30;42.97
9969;BME280;5025;48.890;9.278;2023-06-04T08:33:12;98880.47;;;19.36;42.99
9969;BME280;5025;48.890;9.278;2023-06-04T08:35:37;98881.00;;;19.43;43.04
9969;BME280;5025;48.890;9.278;2023-06-04T08:38:02;98868.63;;;19.51;43.06
9969;BME280;5025;48.890;9.278;2023-06-04T08:40:27;98883.03;;;19.62;43.16
9969;BME280;5025;48.890;9.278;2023-06-04T08:42:55;98887.09;;;19.69;42.89
9969;BME280;5025;48.890;9.278;2023-06-04T08:45:23;98887.88;;;19.75;42.74
9969;BME280;5025;48.890;9.278;2023-06-04T08:47:49;98885.63;;;19.82;42.83
9969;BME280;5025;48.890;9.278;2023-06-04T08:50:25;98874.59;;;19.93;42.87
9969;BME280;5025;48.890;9.278;2023-06-04T08:52:55;98878.88;;;20.04;42.91
9969;BME280;5025;48.890;9.278;2023-06-04T08:55:20;98876.56;;;20.16;42.66
9969;BME280;5025;48.890;9.278;2023-06-04T08:57:47;98870.44;;;20.24;42.24
9969;BME280;5025;48.890;9.278;2023-06-04T09:00:14;98870.91;;;20.32;41.90
9969;BME280;5025;48.890;9.278;2023-06-04T09:02:40;98866.94;;;20.43;41.69
9969;BME280;5025;48.890;9.278;2023-06-04T09:05:06;98863.78;;;20.55;41.51
9969;BME280;5025;48.890;9.278;2023-06-04T09:07:35;98868.34;;;20.65;41.41
9969;BME280;5025;48.890;9.278;2023-06-04T09:10:02;98864.41;;;20.76;41.21
9969;BME280;5025;48.890;9.278;2023-06-04T09:12:28;98864.25;;;20.86;41.23
9969;BME280;5025;48.890;9.278;2023-06-04T09:14:54;98866.56;;;20.98;40.69
9969;BME280;5025;48.890;9.278;2023-06-04T09:17:23;98871.31;;;21.11;40.75
9969;BME280;5025;48.890;9.278;2023-06-04T09:19:49;98868.72;;;21.20;40.57
9969;BME280;5025;48.890;9.278;2023-06-04T09:22:18;98863.09;;;21.30;40.34
9969;BME280;5025;48.890;9.278;2023-06-04T09:24:45;98861.28;;;21.40;39.84
9969;BME280;5025;48.890;9.278;2023-06-04T09:27:13;98861.69;;;21.52;39.67
9969;BME280;5025;48.890;9.278;2023-06-04T09:29:40;98861.50;;;21.62;39.38
9969;BME280;5025;48.890;9.278;2023-06-04T09:32:05;98859.69;;;21.72;38.80
9969;BME280;5025;48.890;9.278;2023-06-04T09:34:31;98863.09;;;21.82;38.57
9969;BME280;5025;48.890;9.278;2023-06-04T09:36:57;98868.13;;;21.94;38.26
9969;BME280;5025;48.890;9.278;2023-06-04T09:39:22;98862.75;;;22.03;38.43
9969;BME280;5025;48.890;9.278;2023-06-04T09:42:02;98860.09;;;22.12;38.28
9969;BME280;5025;48.890;9.278;2023-06-04T09:44:29;98858.28;;;22.21;38.00
9969;BME280;5025;48.890;9.278;2023-06-04T09:46:58;98864.13;;;22.33;37.68
9969;BME280;5025;48.890;9.278;2023-06-04T09:49:23;98860.66;;;22.42;37.62
9969;BME280;5025;48.890;9.278;2023-06-04T09:51:49;98856.69;;;22.48;37.42
9969;BME280;5025;48.890;9.278;2023-06-04T09:54:15;98856.28;;;22.54;37.37
9969;BME280;5025;48.890;9.278;2023-06-04T09:56:41;98856.38;;;22.63;37.05
9969;BME280;5025;48.890;9.278;2023-06-04T09:59:08;98853.00;;;22.66;36.76
9969;BME280;5025;48.890;9.278;2023-06-04T10:01:38;98860.66;;;22.69;36.43
9969;BME280;5025;48.890;9.278;2023-06-04T10:04:07;98849.84;;;22.73;35.78
9969;BME280;5025;48.890;9.278;2023-06-04T10:06:35;98859.22;;;22.86;35.81
9969;BME280;5025;48.890;9.278;2023-06-04T10:09:05;98859.81;;;22.97;35.38
9969;BME280;5025;48.890;9.278;2023-06-04T10:11:40;98861.31;;;23.03;34.85
9969;BME280;5025;48.890;9.278;2023-06-04T10:14:19;98851.94;;;23.04;34.45
9969;BME280;5025;48.890;9.278;2023-06-04T10:16:47;98849.38;;;23.07;34.07
9969;BME280;5025;48.890;9.278;2023-06-04T10:19:13;98850.91;;;23.14;33.81
9969;BME280;5025;48.890;9.278;2023-06-04T10:21:39;98855.31;;;23.15;33.33
9969;BME280;5025;48.890;9.278;2023-06-04T10:24:05;98848.03;;;23.19;33.11
9969;BME280;5025;48.890;9.278;2023-06-04T10:26:33;98856.88;;;23.30;32.80
9969;BME280;5025;48.890;9.278;2023-06-04T10:29:00;98849.00;;;23.37;32.74
9969;BME280;5025;48.890;9.278;2023-06-04T10:31:25;98849.91;;;23.46;32.82
9969;BME280;5025;48.890;9.278;2023-06-04T10:33:55;98847.53;;;23.53;32.45
9969;BME280;5025;48.890;9.278;2023-06-04T10:36:22;98841.38;;;23.56;32.19
9969;BME280;5025;48.890;9.278;2023-06-04T10:38:49;98834.63;;;23.62;32.27
9969;BME280;5025;48.890;9.278;2023-06-04T10:41:15;98839.53;;;23.74;32.49
9969;BME280;5025;48.890;9.278;2023-06-04T10:43:48;98839.81;;;23.87;32.45
9969;BME280;5025;48.890;9.278;2023-06-04T10:46:16;98833.72;;;23.98;32.20
9969;BME280;5025;48.890;9.278;2023-06-04T10:48:48;98837.00;;;24.09;31.93
9969;BME280;5025;48.890;9.278;2023-06-04T10:51:15;98838.66;;;24.19;32.14
9969;BME280;5025;48.890;9.278;2023-06-04T10:53:40;98835.28;;;24.22;31.97
9969;BME280;5025;48.890;9.278;2023-06-04T10:56:05;98829.94;;;24.26;31.72
9969;BME280;5025;48.890;9.278;2023-06-04T10:58:34;98830.78;;;24.35;31.43
9969;BME280;5025;48.890;9.278;2023-06-04T11:01:00;98834.38;;;24.44;31.13
9969;BME280;5025;48.890;9.278;2023-06-04T11:03:36;98839.13;;;24.52;31.28
9969;BME280;5025;48.890;9.278;2023-06-04T11:06:02;98840.66;;;24.59;31.49
9969;BME280;5025;48.890;9.278;2023-06-04T11:08:29;98839.84;;;24.67;31.10
9969;BME280;5025;48.890;9.278;2023-06-04T11:10:54;98834.16;;;24.72;30.86
9969;BME280;5025;48.890;9.278;2023-06-04T11:13:23;98830.75;;;24.75;31.15
9969;BME280;5025;48.890;9.278;2023-06-04T11:15:49;98836.44;;;24.70;30.89
9969;BME280;5025;48.890;9.278;2023-06-04T11:18:22;98829.28;;;24.69;30.20
9969;BME280;5025;48.890;9.278;2023-06-04T11:20:49;98827.50;;;24.73;30.32
9969;BME280;5025;48.890;9.278;2023-06-04T11:23:16;98831.06;;;24.74;30.03
9969;BME280;5025;48.890;9.278;2023-06-04T11:25:42;98829.63;;;24.76;29.79
9969;BME280;5025;48.890;9.278;2023-06-04T11:28:08;98832.41;;;24.85;29.54
9969;BME280;5025;48.890;9.278;2023-06-04T11:30:38;98824.78;;;24.91;30.08
9969;BME280;5025;48.890;9.278;2023-06-04T11:33:05;98829.34;;;25.04;30.08
9969;BME280;5025;48.890;9.278;2023-06-04T11:35:31;98824.63;;;25.13;30.10
9969;BME280;5025;48.890;9.278;2023-06-04T11:37:58;98831.63;;;25.19;29.83
9969;BME280;5025;48.890;9.278;2023-06-04T11:40:24;98828.03;;;25.28;29.87
9969;BME280;5025;48.890;9.278;2023-06-04T11:42:51;98830.66;;;25.33;30.13
9969;BME280;5025;48.890;9.278;2023-06-04T11:45:18;98836.38;;;25.36;29.84
9969;BME280;5025;48.890;9.278;2023-06-04T11:47:48;98831.47;;;25.42;29.71
9969;BME280;5025;48.890;9.278;2023-06-04T11:50:14;98820.75;;;25.49;29.84
9969;BME280;5025;48.890;9.278;2023-06-04T11:52:40;98813.41;;;25.53;29.29
9969;BME280;5025;48.890;9.278;2023-06-04T11:55:12;98815.69;;;25.51;29.28
9969;BME280;5025;48.890;9.278;2023-06-04T11:57:38;98812.28;;;25.46;28.89
9969;BME280;5025;48.890;9.278;2023-06-04T12:00:05;98813.41;;;25.53;28.84
9969;BME280;5025;48.890;9.278;2023-06-04T12:02:37;98808.03;;;25.57;28.73
9969;BME280;5025;48.890;9.278;2023-06-04T12:05:15;98805.78;;;25.50;28.08
9969;BME280;5025;48.890;9.278;2023-06-04T12:07:41;98801.38;;;25.49;28.30
9969;BME280;5025;48.890;9.278;2023-06-04T12:10:10;98806.41;;;25.56;28.18
9969;BME280;5025;48.890;9.278;2023-06-04T12:12:39;98799.41;;;25.58;28.02
9969;BME280;5025;48.890;9.278;2023-06-04T12:15:06;98802.47;;;25.74;28.23
9969;BME280;5025;48.890;9.278;2023-06-04T12:17:32;98798.34;;;25.89;28.22
9969;BME280;5025;48.890;9.278;2023-06-04T12:19:58;98789.91;;;25.86;27.96
9969;BME280;5025;48.890;9.278;2023-06-04T12:22:24;98802.44;;;25.83;27.54
9969;BME280;5025;48.890;9.278;2023-06-04T12:24:51;98794.47;;;25.90;27.56
9969;BME280;5025;48.890;9.278;2023-06-04T12:27:21;98793.47;;;25.95;27.08
9969;BME280;5025;48.890;9.278;2023-06-04T12:30:01;98794.47;;;25.90;27.05
9969;BME280;5025;48.890;9.278;2023-06-04T12:32:27;98791.50;;;25.95;26.84
9969;BME280;5025;48.890;9.278;2023-06-04T12:34:53;98789.22;;;26.06;27.32
9969;BME280;5025;48.890;9.278;2023-06-04T12:37:20;98792.09;;;26.19;27.01
9969;BME280;5025;48.890;9.278;2023-06-04T12:39:45;98794.63;;;26.33;27.49
9969;BME280;5025;48.890;9.278;2023-06-04T12:42:10;98795.88;;;26.44;27.41
9969;BME280;5025;48.890;9.278;2023-06-04T12:44:36;98790.63;;;26.51;27.01
9969;BME280;5025;48.890;9.278;2023-06-04T12:47:02;98798.06;;;26.59;27.19
9969;BME280;5025;48.890;9.278;2023-06-04T12:49:28;98790.53;;;26.69;27.25
9969;BME280;5025;48.890;9.278;2023-06-04T12:51:53;98782.34;;;26.72;26.97
9969;BME280;5025;48.890;9.278;2023-06-04T12:54:18;98798.66;;;26.74;26.85
9969;BME280;5025;48.890;9.278;2023-06-04T12:56:44;98795.81;;;26.82;26.78
9969;BME280;5025;48.890;9.278;2023-06-04T12:59:09;98797.88;;;26.94;26.55
9969;BME280;5025;48.890;9.278;2023-06-04T13:01:35;98789.56;;;26.94;25.97
9969;BME280;5025;48.890;9.278;2023-06-04T13:04:02;98783.38;;;26.89;26.00
9969;BME280;5025;48.890;9.278;2023-06-04T13:06:27;98786.38;;;26.83;25.81
9969;BME280;5025;48.890;9.278;2023-06-04T13:08:52;98772.03;;;26.81;25.52
9969;BME280;5025;48.890;9.278;2023-06-04T13:11:18;98779.81;;;26.88;25.24
9969;BME280;5025;48.890;9.278;2023-06-04T13:13:43;98775.41;;;26.87;25.19
9969;BME280;5025;48.890;9.278;2023-06-04T13:16:09;98770.50;;;26.93;25.41
9969;BME280;5025;48.890;9.278;2023-06-04T13:18:34;98780.97;;;27.08;25.53